Home > Products > Valid Products > MTR

000
SAUS44 KSHV 280758
MTRAQV
METAR KAQV 280756Z AUTO VRB04KT 9SM CLR 26/24 A3003 RMK AO2 SLP166
T02610244





000
SAUS44 KSHV 280757
MTRPOE
METAR KPOE 280755Z AUTO VRB04KT 10SM CLR 26/24 A3004 RMK AO2 SLP172
T02560244





000
SAUS44 KSHV 280755
MTRBKB
METAR KBKB 280754Z AUTO 00000KT 10SM CLR 27/24 A3002 RMK AO2 SLP189
T02670239





000
SAUS44 KSHV 280657
MTRAQV
METAR KAQV 280656Z AUTO 21004KT 9SM CLR 26/24 A3003 RMK AO2 SLP164
T02610244





000
SAUS44 KSHV 280656
MTRPOE
METAR KPOE 280655Z AUTO VRB04KT 10SM CLR 26/24 A3004 RMK AO2 SLP173
T02610239





000
SAUS44 KSHV 280655
MTRBKB
METAR KBKB 280654Z AUTO 00000KT 10SM CLR 27/24 A3002 RMK AO2 SLP190
T02670239





000
SAUS44 KSHV 280557
MTRAQV
METAR KAQV 280556Z AUTO 00000KT 10SM CLR 27/24 A3003 RMK AO2 SLP165
T02670244 10328 20267 403440244 50001





000
SAUS44 KSHV 280556
MTRPOE
METAR KPOE 280555Z AUTO 24005KT 10SM CLR 26/24 A3005 RMK AO2 SLP175
T02610239 10328 20261 51003





000
SAUS44 KSHV 280555
MTRBKB
METAR KBKB 280554Z AUTO VRB03KT 10SM CLR 27/24 A3003 RMK AO2 SLP191
T02720239 10333 20272 403560244 51003





000
SAUS44 KSHV 280457
MTRAQV
METAR KAQV 280456Z AUTO VRB04KT 10SM CLR 27/24 A3004 RMK AO2 SLP166
T02670244





000
SAUS44 KSHV 280456
MTRPOE
METAR KPOE 280455Z AUTO 21006KT 10SM CLR 27/24 A3005 RMK AO2 SLP175
T02670239 403390244





000
SAUS44 KSHV 280455
MTRBKB
METAR KBKB 280454Z AUTO 00000KT 10SM CLR 28/24 A3003 RMK AO2 SLP192
T02780239





000
SAUS44 KSHV 280357
MTRAQV
METAR KAQV 280356Z AUTO 00000KT 10SM CLR 27/24 A3004 RMK AO2 SLP167
T02670244





000
SAUS44 KSHV 280356
MTRPOE
METAR KPOE 280355Z AUTO 21004KT 10SM CLR 28/24 A3006 RMK AO2 SLP177
T02780239





000
SAUS44 KSHV 280355
MTRBKB
METAR KBKB 280354Z AUTO 00000KT 10SM CLR 28/24 A3003 RMK AO2 SLP194
T02830239





000
SAUS44 KSHV 280258
MTRAQV
METAR KAQV 280256Z AUTO 00000KT 7SM CLR 27/26 A3003 RMK AO2 SLP164
T02720256 53007





000
SAUS44 KSHV 280257
MTRPOE
METAR KPOE 280255Z AUTO 20005KT 10SM CLR 29/24 A3004 RMK AO2 SLP172
T02890239 53007





000
SAUS44 KSHV 280255
MTRBKB
METAR KBKB 280254Z AUTO 00000KT 10SM CLR 28/24 A3002 RMK AO2 SLP189
T02830244 53008





000
SAUS44 KSHV 280157
MTRAQV
METAR KAQV 280156Z AUTO 00000KT 10SM CLR 28/26 A3001 RMK AO2 SLP159
T02780256





000
SAUS44 KSHV 280156
MTRBKB
METAR KBKB 280154Z AUTO 00000KT 10SM CLR 28/25 A3000 RMK AO2 SLP183
T02830250





000
SAUS44 KSHV 280156
MTRPOE
METAR KPOE 280155Z AUTO 19003KT 10SM CLR 29/24 A3002 RMK AO2 SLP166
T02890244





000
SAUS44 KSHV 280057
MTRAQV
METAR KAQV 280056Z AUTO 00000KT 10SM CLR 30/26 A3000 RMK AO2 SLP157
T03000256





000
SAUS44 KSHV 280056
MTRPOE
METAR KPOE 280055Z AUTO 00000KT 10SM CLR 31/23 A3002 RMK AO2 SLP164
T03110233





000
SAUS44 KSHV 280056
MTRBKB
METAR KBKB 280054Z AUTO 00000KT 10SM CLR 29/24 A2999 RMK AO2 SLP180
T02940239





000
SAUS44 KSHV 272358
MTRAQV
METAR KAQV 272356Z AUTO VRB03KT 10SM CLR 33/23 A3001 RMK AO2 SLP157
T03280228 10344 20328 56004





000
SAUS44 KSHV 272357
MTRPOE
METAR KPOE 272355Z AUTO 24005KT 10SM CLR 33/22 A3002 RMK AO2 SLP165
T03280217 10339 20311 56006





000
SAUS44 KSHV 272355
MTRBKB
METAR KBKB 272354Z AUTO 00000KT 10SM CLR 33/23 A2999 RMK AO2 SLP180
T03330233 10356 20328 56005





000
SAUS44 KSHV 272258
MTRAQV
METAR KAQV 272256Z AUTO 24004KT 10SM FEW048 34/22 A3001 RMK AO2
SLP157 T03390222





000
SAUS44 KSHV 272256
MTRPOE
METAR KPOE 272255Z AUTO 28007KT 10SM FEW049 33/22 A3002 RMK AO2
SLP165 T03280217





000
SAUS44 KSHV 272255
MTRBKB
METAR KBKB 272254Z AUTO 00000KT 10SM FEW050 34/22 A2999 RMK AO2
SLP180 T03440222





000
SAUS44 KSHV 272157
MTRAQV
METAR KAQV 272156Z AUTO 18004KT 10SM SCT046 SCT060 34/23 A3001 RMK
AO2 SLP158 T03390233





000
SAUS44 KSHV 272156
MTRPOE
METAR KPOE 272155Z AUTO 21007KT 10SM CLR 33/21 A3002 RMK AO2 SLP166
T03330211





000
SAUS44 KSHV 272155
MTRBKB
METAR KBKB 272154Z AUTO VRB03KT 10SM CLR 34/22 A3000 RMK AO2 SLP181
T03440222





000
SAUS44 KSHV 272058
MTRAQV
METAR KAQV 272056Z AUTO VRB05KT 6SM HZ SCT047 34/23 A3002 RMK AO2
SLP161 T03390228 56016





000
SAUS44 KSHV 272056
MTRPOE
METAR KPOE 272055Z AUTO 25008KT 10SM SCT048 33/22 A3004 RMK AO2
SLP171 T03330217 58015





000
SAUS44 KSHV 272055
MTRBKB
METAR KBKB 272054Z AUTO VRB03KT 10SM FEW047 FEW060 34/22 A3001 RMK
AO2 SLP185 T03390217 57016





000
SAUS44 KSHV 271958
MTRAQV
METAR KAQV 271956Z AUTO 20006KT 10SM SCT045 SCT055 34/23 A3003 RMK
AO2 SLP166 T03390228





000
SAUS44 KSHV 271957
MTRPOE
METAR KPOE 271955Z AUTO 22008KT 180V250 10SM SCT043 33/22 A3005 RMK
AO2 SLP175 T03280217





000
SAUS44 KSHV 271955
MTRBKB
METAR KBKB 271954Z AUTO 00000KT 10SM FEW050 SCT065 34/21 A3002 RMK
AO2 SLP190 T03390211





000
SAUS44 KSHV 271857
MTRAQV
METAR KAQV 271856Z AUTO 27005KT 10SM CLR 33/22 A3005 RMK AO2 SLP171
T03330222





000
SAUS44 KSHV 271856
MTRPOE
METAR KPOE 271855Z AUTO VRB05KT 10SM SCT039 32/22 A3007 RMK AO2
SLP181 T03170222





000
SAUS44 KSHV 271855
MTRBKB
METAR KBKB 271854Z AUTO 10SM SCT044 34/22 A3004 RMK AO2 SLP196
T03390222





000
SAUS44 KSHV 271757
MTRPOE
METAR KPOE 271755Z AUTO 26010KT 10SM FEW035 32/23 A3008 RMK AO2
SLP185 T03220228 10322 20244 58005





000
SAUS44 KSHV 271757
MTRAQV
METAR KAQV 271756Z AUTO VRB06KT 9SM FEW038 33/23 A3007 RMK AO2
SLP177 T03280228 10333 20250 58005





000
SAUS44 KSHV 271755
MTRBKB
METAR KBKB 271754Z AUTO VRB04KT 10SM FEW040 33/23 A3005 RMK AO2
SLP201 T03330228 10339 20250 58006





000
SAUS44 KSHV 271657
MTRAQV
METAR KAQV 271656Z AUTO 10SM CLR 33/23 A3008 RMK AO2 SLP180
T03280233





000
SAUS44 KSHV 271656
MTRPOE
METAR KPOE 271655Z AUTO 26008KT 220V280 10SM FEW030 32/23 A3010 RMK
AO2 SLP192 T03170233





000
SAUS44 KSHV 271655
MTRBKB
METAR KBKB 271654Z AUTO VRB04KT 10SM FEW033 32/23 A3007 RMK AO2
SLP206 T03220228





000
SAUS44 KSHV 271649
MTRPOE
SPECI KPOE 271647Z AUTO 26008KT 10SM SCT030 31/22 A3010 RMK AO2





000
SAUS44 KSHV 271629
MTRPOE
SPECI KPOE 271627Z AUTO 28008KT 10SM BKN028 31/23 A3010 RMK AO2





000
SAUS44 KSHV 271558
MTRAQV
METAR KAQV 271556Z AUTO VRB06KT 10SM CLR 31/22 A3008 RMK AO2 SLP182
T03110222





000
SAUS44 KSHV 271556
MTRPOE
METAR KPOE 271555Z AUTO 26007KT 10SM SCT026 30/23 A3010 RMK AO2
SLP192 T03000233





000
SAUS44 KSHV 271556
MTRBKB
METAR KBKB 271554Z AUTO VRB05KT 10SM CLR 32/23 A3007 RMK AO2 SLP207
T03170233





000
SAUS44 KSHV 271457
MTRPOE
METAR KPOE 271455Z AUTO 26007KT 10SM CLR 29/24 A3010 RMK AO2 SLP191
T02890239 51010





000
SAUS44 KSHV 271457
MTRAQV
METAR KAQV 271456Z AUTO 25006KT 10SM CLR 30/23 A3008 RMK AO2 SLP182
T03000233 51009





000
SAUS44 KSHV 271455
MTRBKB
METAR KBKB 271454Z AUTO 10SM CLR 31/23 A3007 RMK AO2 SLP207
T03060233 51010





000
SAUS44 KSHV 271358
MTRAQV
METAR KAQV 271356Z AUTO VRB04KT 10SM CLR 28/24 A3008 RMK AO2 SLP181
T02830244





000
SAUS44 KSHV 271356
MTRPOE
METAR KPOE 271355Z AUTO 26007KT 10SM CLR 28/24 A3010 RMK AO2 SLP191
T02780244





000
SAUS44 KSHV 271355
MTRBKB
METAR KBKB 271354Z AUTO VRB04KT 10SM FEW011 29/24 A3007 RMK AO2
SLP206 T02890244





000
SAUS44 KSHV 271258
MTRAQV
METAR KAQV 271256Z AUTO 00000KT 6SM BR CLR 27/25 A3007 RMK AO2
SLP178 T02670250





000
SAUS44 KSHV 271256
MTRBKB
METAR KBKB 271254Z AUTO 00000KT 9SM CLR 27/24 A3006 RMK AO2 SLP204
T02670244





000
SAUS44 KSHV 271256
MTRPOE
METAR KPOE 271255Z AUTO 23003KT 10SM CLR 26/24 A3008 RMK AO2 SLP185
T02560239





000
SAUS44 KSHV 271221
MTRBKB
SPECI KBKB 271219Z AUTO 00000KT 5SM BR FEW002 SCT011 26/24 A3005 RMK
AO2 T02560239





000
SAUS44 KSHV 271209
MTRBKB
SPECI KBKB 271208Z AUTO 00000KT 4SM BR FEW002 BKN011 25/23 A3004 RMK
AO2 T02500233





000
SAUS44 KSHV 271157
MTRAQV
METAR KAQV 271156Z AUTO 00000KT 5SM BR CLR 25/24 A3005 RMK AO2
SLP172 T02500239 10261 20244 53008





000
SAUS44 KSHV 271156
MTRPOE
METAR KPOE 271155Z AUTO VRB03KT 7SM CLR 24/24 A3007 RMK AO2 SLP181
T02440239 10261 20244 53008





000
SAUS44 KSHV 271155
MTRBKB
METAR KBKB 271154Z AUTO 00000KT 3SM BR FEW002 BKN009 25/23 A3004 RMK
AO2 SLP197 T02500233 10272 20244 53007





000
SAUS44 KSHV 271146
MTRBKB
SPECI KBKB 271145Z AUTO 00000KT 3SM BR FEW002 BKN009 24/23 A3004 RMK
AO2 T02440233





000
SAUS44 KSHV 271134
MTRBKB
SPECI KBKB 271133Z AUTO 00000KT 2SM BR FEW002 BKN008 24/23 A3004 RMK
AO2 T02440233





000
SAUS44 KSHV 271114
MTRBKB
SPECI KBKB 271113Z AUTO 00000KT 3SM BR FEW007 25/23 A3004 RMK AO2
T02500233





000
SAUS44 KSHV 271057
MTRAQV
METAR KAQV 271056Z AUTO 22003KT 6SM BR CLR 25/24 A3004 RMK AO2
SLP168 T02500239





000
SAUS44 KSHV 271057
MTRPOE
METAR KPOE 271055Z AUTO 00000KT 9SM CLR 25/24 A3006 RMK AO2 SLP178
T02500239





000
SAUS44 KSHV 271055
MTRBKB
METAR KBKB 271054Z AUTO 00000KT 3SM BR CLR 25/23 A3004 RMK AO2
SLP195 T02500233





000
SAUS44 KSHV 270958
MTRAQV
METAR KAQV 270956Z AUTO 00000KT 6SM BR CLR 25/24 A3003 RMK AO2
SLP165 T02500239





000
SAUS44 KSHV 270956
MTRPOE
METAR KPOE 270955Z AUTO 00000KT 7SM CLR 24/24 A3004 RMK AO2 SLP173
T02440239





000
SAUS44 KSHV 270955
MTRBKB
METAR KBKB 270954Z AUTO 00000KT 5SM BR CLR 26/24 A3002 RMK AO2
SLP189 T02560239





000
SAUS44 KSHV 270857
MTRAQV
METAR KAQV 270856Z AUTO 00000KT 7SM CLR 26/24 A3003 RMK AO2 SLP164
T02560244 53001





000
SAUS44 KSHV 270856
MTRPOE
METAR KPOE 270855Z AUTO 00000KT 10SM CLR 26/24 A3004 RMK AO2 SLP172
T02560239 53001





000
SAUS44 KSHV 270855
MTRBKB
METAR KBKB 270854Z AUTO 00000KT 5SM BR CLR 26/24 A3002 RMK AO2
SLP189 T02560239 53001





000
SAUS44 KSHV 270757
MTRAQV
METAR KAQV 270756Z AUTO VRB04KT 8SM CLR 26/24 A3002 RMK AO2 SLP161
T02560244





000
SAUS44 KSHV 270756
MTRPOE
METAR KPOE 270755Z AUTO 21003KT 10SM CLR 26/24 A3004 RMK AO2 SLP171
T02560239





000
SAUS44 KSHV 270755
MTRBKB
METAR KBKB 270754Z AUTO 00000KT 6SM BR CLR 26/24 A3001 RMK AO2
SLP187 T02610239





000
SAUS44 KSHV 270657
MTRAQV
METAR KAQV 270656Z AUTO 00000KT 7SM CLR 26/24 A3002 RMK AO2 SLP162
T02560244





000
SAUS44 KSHV 270656
MTRPOE
METAR KPOE 270655Z AUTO 22004KT 10SM CLR 26/24 A3004 RMK AO2 SLP171
T02560244





000
SAUS44 KSHV 270655
MTRBKB
METAR KBKB 270654Z AUTO 00000KT 9SM CLR 27/24 A3001 RMK AO2 SLP188
T02670244





000
SAUS44 KSHV 270557
MTRPOE
METAR KPOE 270555Z AUTO 19004KT 10SM CLR 26/24 A3004 RMK AO2 SLP172
T02610244 10322 20261 50001





000
SAUS44 KSHV 270557
MTRAQV
METAR KAQV 270556Z AUTO 00000KT 8SM CLR 26/24 A3003 RMK AO2 SLP163
T02610244 10322 20261 403390244 50002





000
SAUS44 KSHV 270555
MTRBKB
METAR KBKB 270554Z AUTO VRB03KT 10SM CLR 27/24 A3002 RMK AO2 SLP188
T02720244 10328 20272 403500244 50000





000
SAUS44 KSHV 270458
MTRAQV
METAR KAQV 270456Z AUTO 18004KT 7SM CLR 26/24 A3003 RMK AO2 SLP165
T02610244





000
SAUS44 KSHV 270456
MTRPOE
METAR KPOE 270455Z AUTO 18003KT 10SM CLR 26/24 A3005 RMK AO2 SLP174
T02610239 403330244





000
SAUS44 KSHV 270455
MTRBKB
METAR KBKB 270454Z AUTO VRB03KT 10SM CLR 27/24 A3002 RMK AO2 SLP191
T02720244





000
SAUS44 KSHV 270359
MTRAQV
METAR KAQV 270356Z AUTO 00000KT 8SM CLR 27/24 A3003 RMK AO2 SLP165
T02670244





000
SAUS44 KSHV 270356
MTRPOE
METAR KPOE 270355Z AUTO 19004KT 10SM CLR 27/24 A3005 RMK AO2 SLP174
T02720239





000
SAUS44 KSHV 270355
MTRBKB
METAR KBKB 270354Z AUTO 00000KT 10SM CLR 27/24 A3002 RMK AO2 SLP190
T02720244





000
SAUS44 KSHV 270257
MTRAQV
METAR KAQV 270256Z AUTO VRB03KT 10SM CLR 28/24 A3002 RMK AO2 SLP161
T02780244 53012





000
SAUS44 KSHV 270256
MTRPOE
METAR KPOE 270255Z AUTO 17004KT 10SM CLR 27/24 A3004 RMK AO2 SLP171
T02720244 53015





000
SAUS44 KSHV 270255
MTRBKB
METAR KBKB 270254Z AUTO 00000KT 10SM CLR 28/24 A3002 RMK AO2 SLP188
T02830244 53015





000
SAUS44 KSHV 270157
MTRAQV
METAR KAQV 270156Z AUTO 00000KT 6SM BR CLR 28/26 A3000 RMK AO2
SLP154 T02780256





000
SAUS44 KSHV 270156
MTRPOE
METAR KPOE 270155Z AUTO 19004KT 10SM CLR 29/24 A3001 RMK AO2 SLP163
T02890239





000
SAUS44 KSHV 270155
MTRBKB
METAR KBKB 270154Z AUTO VRB03KT 10SM FEW049 29/24 A2999 RMK AO2
SLP180 T02890244





000
SAUS44 KSHV 270057
MTRAQV
METAR KAQV 270056Z AUTO 00000KT 10SM CLR 29/26 A2999 RMK AO2 SLP151
T02940256





000
SAUS44 KSHV 270057
MTRPOE
METAR KPOE 270055Z AUTO 21007KT 10SM FEW050 30/24 A3000 RMK AO2
SLP159 T03000239





000
SAUS44 KSHV 270055
MTRBKB
METAR KBKB 270054Z AUTO 00000KT 10SM CLR 29/25 A2998 RMK AO2 SLP176
T02940250





000
SAUS44 KSHV 262357
MTRPOE
METAR KPOE 262355Z AUTO 23005KT 10SM FEW050 32/22 A2999 RMK AO2
SLP156 T03220217 10333 20311 56006





000
SAUS44 KSHV 262357
MTRAQV
METAR KAQV 262356Z AUTO 19003KT 10SM CLR 32/23 A2998 RMK AO2 SLP149
T03220228 10339 20322 56005





000
SAUS44 KSHV 262355
MTRBKB
METAR KBKB 262354Z AUTO 00000KT 10SM CLR 33/23 A2997 RMK AO2 SLP173
T03280233 10350 20322 56004





000
SAUS44 KSHV 262257
MTRAQV
METAR KAQV 262256Z AUTO VRB04KT 10SM FEW047 33/22 A2999 RMK AO2
SLP149 T03330222





000
SAUS44 KSHV 262256
MTRPOE
METAR KPOE 262255Z AUTO 24006KT 10SM CLR 33/22 A3000 RMK AO2 SLP157
T03280222





000
SAUS44 KSHV 262255
MTRBKB
METAR KBKB 262254Z AUTO 00000KT 10SM FEW050 34/21 A2997 RMK AO2
SLP173 T03390211





000
SAUS44 KSHV 262158
MTRAQV
METAR KAQV 262156Z AUTO VRB03KT 10SM CLR 33/22 A2999 RMK AO2 SLP149
T03330222





000
SAUS44 KSHV 262156
MTRPOE
METAR KPOE 262155Z AUTO VRB06KT 10SM CLR 33/21 A3000 RMK AO2 SLP158
T03280211





000
SAUS44 KSHV 262155
MTRBKB
METAR KBKB 262154Z AUTO VRB05KT 10SM CLR 34/22 A2997 RMK AO2 SLP174
T03440222





000
SAUS44 KSHV 262057
MTRAQV
METAR KAQV 262056Z AUTO 18005KT 10SM FEW045 34/22 A3000 RMK AO2
SLP153 T03390222 58017





000
SAUS44 KSHV 262056
MTRPOE
METAR KPOE 262055Z AUTO 23005KT 10SM CLR 33/21 A3001 RMK AO2 SLP162
T03330211 58017





000
SAUS44 KSHV 262056
MTRBKB
METAR KBKB 262054Z AUTO 00000KT 10SM CLR 34/21 A2998 RMK AO2 SLP177
T03440211 58018





000
SAUS44 KSHV 261958
MTRAQV
METAR KAQV 261956Z AUTO VRB05KT 8SM FEW045 33/22 A3002 RMK AO2
SLP160 T03330222





000
SAUS44 KSHV 261957
MTRPOE
METAR KPOE 261955Z AUTO 19004KT 10SM CLR 32/21 A3003 RMK AO2 SLP169
T03220211





000
SAUS44 KSHV 261955
MTRBKB
METAR KBKB 261954Z AUTO 00000KT 10SM FEW047 34/21 A3000 RMK AO2
SLP184 T03390211





000
SAUS44 KSHV 261857
MTRAQV
METAR KAQV 261856Z AUTO 18004KT 10SM BKN044 32/22 A3003 RMK AO2
SLP166 T03220222





000
SAUS44 KSHV 261856
MTRPOE
METAR KPOE 261855Z AUTO VRB05KT 10SM FEW041 32/22 A3005 RMK AO2
SLP175 T03170217





000
SAUS44 KSHV 261855
MTRBKB
METAR KBKB 261854Z AUTO VRB05KT 10SM CLR 34/22 A3002 RMK AO2 SLP189
T03390217





000
SAUS44 KSHV 261758
MTRAQV
METAR KAQV 261756Z AUTO 23005KT 10SM SCT043 32/22 A3005 RMK AO2
SLP171 T03220217 10328 20244 58006





000
SAUS44 KSHV 261757
MTRPOE
METAR KPOE 261755Z AUTO VRB04KT 10SM FEW037 32/22 A3006 RMK AO2
SLP180 T03170222 10317 20250 58007





000
SAUS44 KSHV 261755
MTRBKB
METAR KBKB 261754Z AUTO 00000KT 10SM BKN042 32/22 A3004 RMK AO2
SLP195 T03220222 10333 20244 58006





000
SAUS44 KSHV 261657
MTRAQV
METAR KAQV 261656Z AUTO VRB05KT 10SM FEW037 32/22 A3006 RMK AO2
SLP175 T03170217





000
SAUS44 KSHV 261656
MTRPOE
METAR KPOE 261655Z AUTO 00000KT 10SM FEW029 31/22 A3008 RMK AO2
SLP185 T03060217





000
SAUS44 KSHV 261655
MTRBKB
METAR KBKB 261654Z AUTO 23005KT 10SM CLR 33/22 A3005 RMK AO2 SLP200
T03280222





000
SAUS44 KSHV 261601 COR
MTRAQV
METAR KAQV 261556Z AUTO VRB03KT 8SM FEW031 31/22 A3006 RMK AO2
SLP175 T03110222





000
SAUS44 KSHV 261600 COR
MTRAQV
METAR KAQV 261556Z AUTO VRB03KT 8SM FEW031 31/22 A3006 RMK AO2
SLP175 T03110222





000
SAUS44 KSHV 261559 COR
MTRAQV
METAR KAQV 261556Z AUTO VRB03KT 8SM FEW031 31/22 A3006 RMK AO2
SLP175 T03110222





000
SAUS44 KSHV 261558
MTRAQV
METAR KAQV 261556Z AUTO VRB03KT 8SM FEW031 31/22 A3006 RMK AO2
SLP175 T03110222





000
SAUS44 KSHV 261556
MTRPOE
METAR KPOE 261555Z AUTO VRB04KT 10SM FEW027 29/23 A3008 RMK AO2
SLP185 T02940228





000
SAUS44 KSHV 261555
MTRBKB
METAR KBKB 261554Z AUTO VRB04KT 10SM FEW029 31/23 A3005 RMK AO2
SLP200 T03110228





000
SAUS44 KSHV 261457
MTRAQV
METAR KAQV 261456Z AUTO 27003KT 10SM CLR 30/23 A3007 RMK AO2 SLP178
T03000233 51013





000
SAUS44 KSHV 261456
MTRBKB
METAR KBKB 261454Z AUTO VRB03KT 10SM FEW024 31/23 A3006 RMK AO2
SLP202 T03060233 51013





000
SAUS44 KSHV 261456
MTRPOE
METAR KPOE 261455Z AUTO 24005KT 10SM FEW018 28/24 A3008 RMK AO2
SLP187 T02830239 51014





000
SAUS44 KSHV 261357
MTRAQV
METAR KAQV 261356Z AUTO VRB06KT 10SM CLR 28/24 A3007 RMK AO2 SLP178
T02830244





000
SAUS44 KSHV 261356
MTRPOE
METAR KPOE 261355Z AUTO 25007KT 10SM FEW012 27/24 A3008 RMK AO2
SLP186 T02720244





000
SAUS44 KSHV 261355
MTRBKB
METAR KBKB 261354Z AUTO VRB03KT 10SM CLR 29/24 A3005 RMK AO2 SLP201
T02940244





000
SAUS44 KSHV 261257
MTRPOE
METAR KPOE 261255Z AUTO 28005KT 10SM CLR 26/24 A3006 RMK AO2 SLP179
T02560239





000
SAUS44 KSHV 261257
MTRAQV
METAR KAQV 261256Z AUTO 26007KT 7SM CLR 26/24 A3005 RMK AO2 SLP172
T02610244





000
SAUS44 KSHV 261255
MTRBKB
METAR KBKB 261254Z AUTO 00000KT 10SM CLR 27/24 A3004 RMK AO2 SLP198
T02670239





000
SAUS44 KSHV 261212
MTRBKB
SPECI KBKB 261211Z AUTO 00000KT 4SM BR CLR 25/23 A3002 RMK AO2
T02500233





000
SAUS44 KSHV 261205
MTRBKB
SPECI KBKB 261204Z AUTO 00000KT 2 1/2SM BR CLR 24/23 A3002 RMK AO2
T02440228





000
SAUS44 KSHV 261157
MTRAQV
METAR KAQV 261156Z AUTO 00000KT 4SM BR CLR 24/23 A3003 RMK AO2
SLP164 T02440233 10261 20244 53014





000
SAUS44 KSHV 261156
MTRPOE
METAR KPOE 261155Z AUTO 00000KT 10SM CLR 25/24 A3004 RMK AO2 SLP173
T02500239 10261 20244 53012





000
SAUS44 KSHV 261155
MTRBKB
METAR KBKB 261154Z AUTO 00000KT 1 3/4SM BR CLR 24/23 A3002 RMK AO2
SLP189 T02440228 10261 20244 53013





000
SAUS44 KSHV 261128
MTRBKB
SPECI KBKB 261126Z AUTO 00000KT 1 3/4SM BR SCT016 24/23 A3001 RMK
AO2 T02440228





000
SAUS44 KSHV 261112
MTRBKB
SPECI KBKB 261111Z AUTO 00000KT 2 1/2SM BR FEW015 24/23 A3001 RMK
AO2 T02440228





000
SAUS44 KSHV 261103
MTRPOE
SPECI KPOE 261102Z AUTO 00000KT 9SM SCT015 24/23 A3002 RMK AO2





000
SAUS44 KSHV 261058
MTRAQV
METAR KAQV 261056Z AUTO 00000KT 5SM BR CLR 24/23 A3001 RMK AO2
SLP157 T02440233





000
SAUS44 KSHV 261056
MTRBKB
METAR KBKB 261054Z AUTO 00000KT 3SM BR CLR 24/23 A3000 RMK AO2
SLP183 T02440228





000
SAUS44 KSHV 261056
MTRPOE
METAR KPOE 261055Z AUTO 24003KT 9SM BKN015 24/23 A3002 RMK AO2
SLP165 T02440233





000
SAUS44 KSHV 261051
MTRPOE
SPECI KPOE 261050Z AUTO 00000KT 9SM BKN015 25/24 A3002 RMK AO2





000
SAUS44 KSHV 261003
MTRBKB
SPECI KBKB 261001Z AUTO 00000KT 3SM BR CLR 24/23 A2999 RMK AO2
T02440228





000
SAUS44 KSHV 260957
MTRPOE
METAR KPOE 260955Z AUTO 21003KT 9SM CLR 25/24 A3001 RMK AO2 SLP161
T02500239





000
SAUS44 KSHV 260957
MTRAQV
METAR KAQV 260956Z AUTO 00000KT 5SM BR CLR 24/23 A2999 RMK AO2
SLP152 T02440233





000
SAUS44 KSHV 260955
MTRBKB
METAR KBKB 260954Z AUTO 00000KT 2 1/2SM BR CLR 24/23 A2999 RMK AO2
SLP179 T02440228





000
SAUS44 KSHV 260941
MTRBKB
SPECI KBKB 260940Z AUTO 00000KT 2SM BR CLR 24/23 A2998 RMK AO2
T02440228





000
SAUS44 KSHV 260857
MTRPOE
METAR KPOE 260855Z AUTO 00000KT 8SM CLR 25/24 A3000 RMK AO2 SLP159
T02500239 55005





000
SAUS44 KSHV 260857
MTRAQV
METAR KAQV 260856Z AUTO 00000KT 7SM CLR 25/24 A2999 RMK AO2 SLP150
T02500239 55005





000
SAUS44 KSHV 260855
MTRBKB
METAR KBKB 260854Z AUTO 00000KT 3SM BR CLR 25/23 A2998 RMK AO2
SLP176 T02500233 56003





000
SAUS44 KSHV 260851
MTRBKB
SPECI KBKB 260849Z AUTO 00000KT 2 1/2SM BR CLR 25/23 A2998 RMK AO2





000
SAUS44 KSHV 260757
MTRPOE
METAR KPOE 260755Z AUTO 00000KT 10SM CLR 26/24 A3000 RMK AO2 SLP157
T02560239





000
SAUS44 KSHV 260757
MTRAQV
METAR KAQV 260756Z AUTO VRB03KT 7SM CLR 26/24 A2998 RMK AO2 SLP147
T02560239





000
SAUS44 KSHV 260755
MTRBKB
METAR KBKB 260754Z AUTO 00000KT 5SM BR CLR 26/23 A2997 RMK AO2
SLP173 T02560233





000
SAUS44 KSHV 260658
MTRAQV
METAR KAQV 260656Z AUTO VRB04KT 7SM CLR 26/24 A2999 RMK AO2 SLP150
T02610239





000
SAUS44 KSHV 260656
MTRPOE
METAR KPOE 260655Z AUTO VRB03KT 10SM CLR 26/24 A3001 RMK AO2 SLP161
T02610239





000
SAUS44 KSHV 260655
MTRBKB
METAR KBKB 260654Z AUTO 00000KT 6SM BR CLR 26/24 A2999 RMK AO2
SLP178 T02610239





000
SAUS44 KSHV 260559 COR
MTRBKB
METAR KBKB 260554Z AUTO 00000KT 6SM BR CLR 26/24 A2999 RMK AO2
SLP180 T02610239 10322 20261 403500233 50006





000
SAUS44 KSHV 260557
MTRPOE
METAR KPOE 260555Z AUTO 20003KT 9SM CLR 26/24 A3002 RMK AO2 SLP164
T02610239 10328 20261 50008





000
SAUS44 KSHV 260557
MTRAQV
METAR KAQV 260556Z AUTO 00000KT 7SM CLR 26/24 A3000 RMK AO2 SLP155
T02560239 10328 20256 403440228 50007





000
SAUS44 KSHV 260500 COR
MTRPOE
METAR KPOE 260455Z AUTO 18003KT 10SM FEW044 BKN055 27/24 A3002 RMK
AO2 SLP166 T02670239 403390228





000
SAUS44 KSHV 260458
MTRAQV
METAR KAQV 260456Z AUTO 00000KT 7SM CLR 26/24 A3000 RMK AO2 SLP156
T02560244





000
SAUS44 KSHV 260457
MTRBKB
METAR KBKB 260454Z AUTO 00000KT 9SM CLR 27/24 A3000 RMK AO2 SLP181
T02670244





000
SAUS44 KSHV 260456
MTRPOE
METAR KPOE 260455Z AUTO 18003KT 10SM FEW044 BKN055 27/24 A3002 RMK
AO2 SLP166 T02670239 403390228





000
SAUS44 KSHV 260358
MTRAQV
METAR KAQV 260356Z AUTO 00000KT 7SM SCT046 26/25 A3000 RMK AO2
SLP154 T02610250





000
SAUS44 KSHV 260356
MTRPOE
METAR KPOE 260355Z AUTO 19005KT 10SM CLR 28/24 A3000 RMK AO2 SLP160
T02780239





000
SAUS44 KSHV 260355
MTRBKB
METAR KBKB 260354Z AUTO 00000KT 10SM CLR 27/24 A2998 RMK AO2 SLP177
T02720244





000
SAUS44 KSHV 260259
MTRAQV
METAR KAQV 260256Z AUTO 00000KT 8SM CLR 27/25 A2998 RMK AO2 SLP149
T02670250 53007





000
SAUS44 KSHV 260256
MTRBKB
METAR KBKB 260254Z AUTO 00000KT 10SM FEW050 27/24 A2997 RMK AO2
SLP174 T02670244 53010





000
SAUS44 KSHV 260256
MTRPOE
METAR KPOE 260255Z AUTO 16004KT 10SM CLR 27/24 A2999 RMK AO2 SLP156
T02670244 53008





000
SAUS44 KSHV 260157
MTRAQV
METAR KAQV 260156Z AUTO 00000KT 10SM CLR 28/26 A2997 RMK AO2 SLP144
T02780256





000
SAUS44 KSHV 260156
MTRPOE
METAR KPOE 260155Z AUTO 00000KT 10SM CLR 28/24 A2997 RMK AO2 SLP150
T02830244





000
SAUS44 KSHV 260155
MTRBKB
METAR KBKB 260154Z AUTO 00000KT 10SM CLR 28/24 A2995 RMK AO2 SLP168
T02780244





000
SAUS44 KSHV 260057
MTRAQV
METAR KAQV 260056Z AUTO 00000KT 10SM SCT050 30/25 A2997 RMK AO2
SLP145 T03000250





000
SAUS44 KSHV 260056
MTRPOE
METAR KPOE 260055Z AUTO 00000KT 10SM CLR 32/22 A2998 RMK AO2 SLP151
T03170222





000
SAUS44 KSHV 260055
MTRBKB
METAR KBKB 260054Z AUTO 00000KT 10SM CLR 29/26 A2995 RMK AO2 SLP167
T02890256





000
SAUS44 KSHV 252358
MTRAQV
METAR KAQV 252356Z AUTO 36003KT 10SM CLR 33/23 A2996 RMK AO2 SLP142
T03280228 10344 20322 55003





000
SAUS44 KSHV 252357
MTRPOE
METAR KPOE 252355Z AUTO 03003KT 10SM CLR 33/21 A2997 RMK AO2 SLP148
T03280211 10339 20311 55003





000
SAUS44 KSHV 252355
MTRBKB
METAR KBKB 252354Z AUTO 00000KT 10SM CLR 33/23 A2994 RMK AO2 SLP165
T03280233 10350 20306 55003





000
SAUS44 KSHV 252257
MTRAQV
METAR KAQV 252256Z AUTO 04003KT 10SM CLR 34/21 A2995 RMK AO2 SLP138
T03440211





000
SAUS44 KSHV 252256
MTRPOE
METAR KPOE 252255Z AUTO 03005KT 10SM CLR 33/22 A2996 RMK AO2 SLP144
T03280217





000
SAUS44 KSHV 252255
MTRBKB
METAR KBKB 252254Z AUTO 00000KT 10SM CLR 34/22 A2993 RMK AO2 SLP159
T03440222





000
SAUS44 KSHV 252158
MTRAQV
METAR KAQV 252156Z AUTO VRB03KT 10SM CLR 34/22 A2996 RMK AO2 SLP143
T03390217





000
SAUS44 KSHV 252157
MTRPOE
METAR KPOE 252155Z AUTO 14003KT 10SM SCT050 BKN075 OVC090 34/22
A2997 RMK AO2 SLP148 T03390217





000
SAUS44 KSHV 252155
MTRBKB
METAR KBKB 252154Z AUTO 00000KT 10SM FEW055 33/24 A2994 RMK AO2
SLP165 T03330244





000
SAUS44 KSHV 252057
MTRAQV
METAR KAQV 252056Z AUTO 10SM FEW049 34/21 A2997 RMK AO2 SLP144
T03440211 57014





000
SAUS44 KSHV 252056
MTRPOE
METAR KPOE 252055Z AUTO 31004KT 10SM BKN048 BKN060 32/22 A2998 RMK
AO2 SLP151 T03220217 57016





000
SAUS44 KSHV 252055
MTRBKB
METAR KBKB 252054Z AUTO 00000KT 10SM SCT046 31/24 A2995 RMK AO2
SLP168 T03110244 56016





000
SAUS44 KSHV 252000 COR
MTRAQV
METAR KAQV 251956Z AUTO 00000KT 10SM CLR 34/21 A2998 RMK AO2 SLP149
T03390211





000
SAUS44 KSHV 251957
MTRAQV
METAR KAQV 251956Z AUTO 00000KT 10SM CLR 34/21 A2998 RMK AO2 SLP149
T03390211





000
SAUS44 KSHV 251956
MTRPOE
METAR KPOE 251955Z AUTO 25004KT 10SM CLR 32/22 A2999 RMK AO2 SLP156
T03220217





000
SAUS44 KSHV 251956
MTRBKB
METAR KBKB 251954Z AUTO 00000KT 10SM BKN045 BKN055 33/22 A2996 RMK
AO2 SLP172 T03280222





000
SAUS44 KSHV 251858
MTRAQV
METAR KAQV 251856Z AUTO VRB03KT 10SM BKN048 33/21 A3000 RMK AO2
SLP155 T03280211





000
SAUS44 KSHV 251857
MTRPOE
METAR KPOE 251855Z AUTO 31006KT 10SM BKN040 OVC050 31/22 A3001 RMK
AO2 SLP162 T03110222





000
SAUS44 KSHV 251855
MTRBKB
METAR KBKB 251854Z AUTO VRB03KT 10SM BKN042 BKN095 32/23 A2998 RMK
AO2 SLP178 T03220228





000
SAUS44 KSHV 251757
MTRAQV
METAR KAQV 251756Z AUTO 00000KT 10SM FEW041 32/21 A3001 RMK AO2
SLP160 T03220211 10322 20233 58010





000
SAUS44 KSHV 251756
MTRPOE
METAR KPOE 251755Z AUTO 30005KT 10SM FEW043 SCT055 32/21 A3003 RMK
AO2 SLP167 T03170211 10317 20233 58012





000
SAUS44 KSHV 251755
MTRBKB
METAR KBKB 251754Z AUTO 00000KT 10SM FEW038 SCT047 BKN060 33/23
A3000 RMK AO2 SLP182 T03330228 10333 20239 58012





000
SAUS44 KSHV 251658
MTRAQV
METAR KAQV 251656Z AUTO 28004KT 10SM BKN037 BKN049 32/23 A3003 RMK
AO2 SLP167 T03170228





000
SAUS44 KSHV 251656
MTRPOE
METAR KPOE 251655Z AUTO 27006KT 10SM BKN035 30/22 A3005 RMK AO2
SLP175 T03000222





000
SAUS44 KSHV 251655
MTRBKB
METAR KBKB 251654Z AUTO VRB03KT 10SM SCT042 32/22 A3002 RMK AO2
SLP189 T03220222





000
SAUS44 KSHV 251557
MTRAQV
METAR KAQV 251556Z AUTO 00000KT 10SM BKN030 BKN037 BKN055 31/23
A3005 RMK AO2 SLP171 T03110228





000
SAUS44 KSHV 251556
MTRPOE
METAR KPOE 251555Z AUTO 00000KT 10SM FEW028 SCT035 30/22 A3005 RMK
AO2 SLP176 T03000222





000
SAUS44 KSHV 251555
MTRBKB
METAR KBKB 251554Z AUTO VRB04KT 10SM SCT032 32/23 A3002 RMK AO2
SLP191 T03220228





000
SAUS44 KSHV 251459
MTRAQV
METAR KAQV 251456Z AUTO 00000KT 10SM CLR 29/24 A3004 RMK AO2 SLP170
T02940239 50009





000
SAUS44 KSHV 251456
MTRBKB
METAR KBKB 251454Z AUTO 00000KT 10SM CLR 31/23 A3003 RMK AO2 SLP195
T03060228 51009





000
SAUS44 KSHV 251456
MTRPOE
METAR KPOE 251455Z AUTO 00000KT 10SM CLR 29/23 A3006 RMK AO2 SLP179
T02890233 51011





000
SAUS44 KSHV 251357
MTRAQV
METAR KAQV 251356Z AUTO 00000KT 9SM CLR 28/24 A3004 RMK AO2 SLP170
T02780244





000
SAUS44 KSHV 251356
MTRPOE
METAR KPOE 251355Z AUTO 14003KT 10SM CLR 27/24 A3006 RMK AO2 SLP179
T02670239





000
SAUS44 KSHV 251356
MTRBKB
METAR KBKB 251354Z AUTO 00000KT 10SM CLR 28/24 A3003 RMK AO2 SLP195
T02830239





000
SAUS44 KSHV 251257
MTRPOE
METAR KPOE 251255Z AUTO 00000KT 9SM CLR 25/23 A3004 RMK AO2 SLP171
T02500233





000
SAUS44 KSHV 251257
MTRAQV
METAR KAQV 251256Z AUTO VRB03KT 6SM BR CLR 25/23 A3003 RMK AO2
SLP164 T02500233





000
SAUS44 KSHV 251256
MTRBKB
METAR KBKB 251254Z AUTO 00000KT 9SM CLR 26/23 A3002 RMK AO2 SLP189
T02610233





000
SAUS44 KSHV 251215
MTRAQV
SPECI KAQV 251214Z AUTO 00000KT 3SM BR CLR 24/23 A3002 RMK AO2
T02390228





000
SAUS44 KSHV 251209
MTRAQV
SPECI KAQV 251207Z AUTO 00000KT 2 1/2SM BR CLR 24/23 A3002 RMK AO2
T02390228





000
SAUS44 KSHV 251158
MTRAQV
METAR KAQV 251156Z AUTO 00000KT 3SM BR CLR 23/22 A3002 RMK AO2
SLP161 T02330222 10233 20228 51007





000
SAUS44 KSHV 251157
MTRPOE
METAR KPOE 251155Z AUTO 00000KT 7SM CLR 23/22 A3003 RMK AO2 SLP168
T02330222 10244 20228 53009





000
SAUS44 KSHV 251155
MTRBKB
METAR KBKB 251154Z AUTO 00000KT 4SM BR CLR 24/22 A3001 RMK AO2
SLP186 T02390222 10244 20233 53010





000
SAUS44 KSHV 251149
MTRAQV
SPECI KAQV 251148Z AUTO 00000KT 2SM BR CLR 23/22 A3002 RMK AO2
T02280222





000
SAUS44 KSHV 251057
MTRAQV
METAR KAQV 251056Z AUTO 00000KT 6SM BR SCT029 BKN040 BKN048 23/22
A3001 RMK AO2 SLP160 T02330222





000
SAUS44 KSHV 251056
MTRPOE
METAR KPOE 251055Z AUTO 00000KT 10SM CLR 23/22 A3002 RMK AO2 SLP164
T02280222





000
SAUS44 KSHV 251055
MTRBKB
METAR KBKB 251054Z AUTO 00000KT 7SM CLR 23/22 A2999 RMK AO2 SLP181
T02330217





000
SAUS44 KSHV 250957
MTRAQV
METAR KAQV 250956Z AUTO 00000KT 5SM BR FEW035 23/22 A3000 RMK AO2
SLP155 T02280222





000
SAUS44 KSHV 250956
MTRPOE
METAR KPOE 250955Z AUTO 00000KT 10SM CLR 23/22 A3001 RMK AO2 SLP162
T02330222





000
SAUS44 KSHV 250955
MTRBKB
METAR KBKB 250954Z AUTO 00000KT 6SM BR FEW040 23/22 A2998 RMK AO2
SLP178 T02330217





000
SAUS44 KSHV 250857
MTRAQV
METAR KAQV 250856Z AUTO 00000KT 7SM SCT035 23/22 A2999 RMK AO2
SLP153 T02330222 58002





000
SAUS44 KSHV 250856
MTRPOE
METAR KPOE 250855Z AUTO 00000KT 10SM CLR 24/22 A3000 RMK AO2 SLP159
T02390222 58002





000
SAUS44 KSHV 250855
MTRBKB
METAR KBKB 250854Z AUTO 00000KT 8SM FEW029 SCT040 SCT047 24/22 A2998
RMK AO2 SLP176 T02390222 58003





    US Dept of Commerce
    National Oceanic and Atmospheric Administration
    National Weather Service
    1325 East West Highway
    Silver Spring, MD 20910
    Page Author: NWS Internet Services Team
Disclaimer
Information Quality
Credits
Glossary
Privacy Policy
Freedom of Information Act (FOIA)
About Us
Career Opportunities